Terminal Aerodrome Forecast
Issued by NWS

Home | Current Version | Previous Version | Text Only | Print | Product List | Glossary Off
Versions: 1 2 3 4 5 6 7 8 9 10 11 12 13 14 15 16 17 18 19 20 21 22 23 24 25

000
FTUS45 KGGW 061139
TAFGDV
TAF
KGDV 061139Z 0612/0712 25015KT P6SM SCT200 WS020/35040KT
     FM061500 25017G24KT P6SM BKN100 WS020/31045KT
     FM061800 27025G36KT P6SM SCT150
     FM062100 28032G45KT P6SM FEW150
     FM070100 29026G37KT P6SM BKN100
      AMD LTD TO CLD VIS AND WIND=

USA.gov is the U.S. government's official web portal to all federal, state and local government web resources and services.